Aviation Digital Data Service (ADDS)

Output produced by METARs form (1017 UTC 25 March 2019)
found at http://aviationweather.gov/metar/data/
 
ESTA 250950Z 04011KT 9999 BKN011 BKN072 05/03 Q1010
TAF AMD ESTA 250937Z 2509/2518 04008KT 9999 SCT010 BKN020 
     TEMPO 2509/2512 BKN008